createdAt,value
2022-12-29T00:00:35.783Z,50.65
2022-12-29T00:01:35.766Z,50.66
2022-12-29T00:02:35.821Z,50.67
2022-12-29T00:03:35.798Z,50.61
2022-12-29T00:04:35.648Z,50.60
2022-12-29T00:05:35.676Z,50.63
2022-12-29T00:06:35.625Z,50.64
2022-12-29T00:07:35.639Z,50.65
2022-12-29T00:08:35.583Z,50.66
2022-12-29T00:09:35.619Z,50.62
2022-12-29T00:10:35.588Z,50.63
2022-12-29T00:11:35.600Z,50.60
2022-12-29T00:12:35.551Z,50.59
2022-12-29T00:13:35.557Z,50.59
2022-12-29T00:14:35.524Z,50.61
2022-12-29T00:15:35.591Z,50.63
2022-12-29T00:16:35.514Z,50.67
2022-12-29T00:17:35.498Z,50.62
2022-12-29T00:18:35.439Z,50.61
2022-12-29T00:19:35.477Z,50.61
2022-12-29T00:20:35.466Z,50.62
2022-12-29T00:21:35.467Z,50.59
2022-12-29T00:22:35.398Z,50.61
2022-12-29T00:23:35.461Z,50.57
2022-12-29T00:24:35.373Z,50.57
2022-12-29T00:25:35.406Z,50.60
2022-12-29T00:26:35.339Z,50.63
2022-12-29T00:27:35.373Z,50.64
2022-12-29T00:28:35.330Z,50.65
2022-12-29T00:29:35.326Z,50.62
2022-12-29T00:30:35.308Z,50.56
2022-12-29T00:31:35.353Z,50.56
2022-12-29T00:32:35.282Z,50.56
2022-12-29T00:33:35.303Z,50.53
2022-12-29T00:34:35.245Z,50.61
2022-12-29T00:35:35.266Z,50.55
2022-12-29T00:36:35.233Z,50.56
2022-12-29T00:37:35.232Z,50.56
2022-12-29T00:38:35.195Z,50.55
2022-12-29T00:39:35.230Z,50.62
2022-12-29T00:40:35.188Z,50.60
2022-12-29T00:41:35.178Z,50.59
2022-12-29T00:42:35.135Z,50.56
2022-12-29T00:43:35.183Z,50.59
2022-12-29T00:44:35.139Z,50.58
2022-12-29T00:45:35.128Z,50.59
2022-12-29T00:46:35.210Z,50.58
2022-12-29T00:47:35.115Z,50.54
2022-12-29T00:48:35.096Z,50.55
2022-12-29T00:49:35.134Z,50.56
2022-12-29T00:50:35.074Z,50.50
2022-12-29T00:51:35.090Z,50.54
2022-12-29T00:52:35.030Z,50.54
2022-12-29T00:53:35.069Z,50.55
2022-12-29T00:54:35.024Z,50.59
2022-12-29T00:55:35.013Z,50.55
2022-12-29T00:56:34.976Z,50.52
2022-12-29T00:57:35.024Z,50.57
2022-12-29T00:58:34.963Z,50.53
2022-12-29T00:59:34.978Z,50.53
2022-12-29T01:00:34.944Z,50.53
2022-12-29T01:01:35.258Z,50.50
2022-12-29T01:02:35.032Z,50.49
2022-12-29T01:03:34.956Z,50.49
2022-12-29T01:04:34.901Z,50.51
2022-12-29T01:05:34.934Z,50.54
2022-12-29T01:06:34.905Z,50.52
2022-12-29T01:07:34.911Z,50.55
2022-12-29T01:08:34.846Z,50.60
2022-12-29T01:09:34.877Z,50.61
2022-12-29T01:10:34.857Z,50.59
2022-12-29T01:11:34.843Z,50.61
2022-12-29T01:12:34.813Z,50.58
2022-12-29T01:13:34.837Z,50.59
2022-12-29T01:14:34.801Z,50.57
2022-12-29T01:15:34.811Z,50.55
2022-12-29T01:16:34.854Z,50.54
2022-12-29T01:17:34.873Z,50.56
2022-12-29T01:18:34.735Z,50.56
2022-12-29T01:19:34.756Z,50.50
2022-12-29T01:20:34.717Z,50.52
2022-12-29T01:21:34.740Z,50.54
2022-12-29T01:22:34.675Z,50.54
2022-12-29T01:23:34.715Z,50.52
2022-12-29T01:24:34.668Z,50.56
2022-12-29T01:25:34.680Z,50.55
2022-12-29T01:26:34.634Z,50.54
2022-12-29T01:27:34.665Z,50.56
2022-12-29T01:28:34.636Z,50.56
2022-12-29T01:29:34.650Z,50.53
2022-12-29T01:30:34.588Z,50.54
2022-12-29T01:31:34.654Z,50.50
2022-12-29T01:32:34.600Z,50.47
2022-12-29T01:33:34.600Z,50.50
2022-12-29T01:34:34.537Z,50.49
2022-12-29T01:35:34.585Z,50.54
2022-12-29T01:36:34.535Z,50.53
2022-12-29T01:37:34.547Z,50.51
2022-12-29T01:38:34.496Z,50.52
2022-12-29T01:39:34.522Z,50.54
2022-12-29T01:40:34.459Z,50.56
2022-12-29T01:41:34.459Z,50.54
2022-12-29T01:42:34.435Z,50.49
2022-12-29T01:43:34.444Z,50.53
2022-12-29T01:44:34.397Z,50.54
2022-12-29T01:45:34.420Z,50.53
2022-12-29T01:46:34.348Z,50.52
2022-12-29T01:47:34.389Z,50.51
2022-12-29T01:48:34.356Z,50.53
2022-12-29T01:49:34.372Z,50.55
2022-12-29T01:50:34.323Z,50.52
2022-12-29T01:51:34.332Z,50.50
2022-12-29T01:52:34.295Z,50.53
2022-12-29T01:53:34.307Z,50.53
2022-12-29T01:54:34.292Z,50.56
2022-12-29T01:55:34.288Z,50.51
2022-12-29T01:56:34.255Z,50.50
2022-12-29T01:57:34.303Z,50.53
2022-12-29T01:58:34.287Z,50.50
2022-12-29T01:59:34.225Z,50.52
2022-12-29T02:00:34.362Z,50.55
2022-12-29T02:01:34.444Z,50.54
2022-12-29T02:02:34.286Z,50.54
2022-12-29T02:03:34.253Z,50.54
2022-12-29T02:04:34.170Z,50.53
2022-12-29T02:05:34.155Z,50.55
2022-12-29T02:06:34.137Z,50.53
2022-12-29T02:07:34.146Z,50.58
2022-12-29T02:08:34.320Z,50.59
2022-12-29T02:09:34.146Z,50.57
2022-12-29T02:10:34.208Z,50.54
2022-12-29T02:11:34.100Z,50.54
2022-12-29T02:12:34.095Z,50.52
2022-12-29T02:13:34.106Z,50.51
2022-12-29T02:14:34.069Z,50.50
2022-12-29T02:15:34.079Z,50.53
2022-12-29T02:16:34.102Z,50.52
2022-12-29T02:17:34.071Z,50.53
2022-12-29T02:18:34.044Z,50.54
2022-12-29T02:19:34.045Z,50.59
2022-12-29T02:20:33.980Z,50.54
2022-12-29T02:21:33.998Z,50.53
2022-12-29T02:22:33.995Z,50.55
2022-12-29T02:23:33.958Z,50.54
2022-12-29T02:24:33.954Z,50.51
2022-12-29T02:25:33.953Z,50.50
2022-12-29T02:26:33.926Z,50.49
2022-12-29T02:27:33.930Z,50.47
2022-12-29T02:28:33.916Z,50.49
2022-12-29T02:29:33.887Z,50.48
2022-12-29T02:30:33.879Z,50.45
2022-12-29T02:31:33.976Z,50.44
2022-12-29T02:32:33.854Z,50.47
2022-12-29T02:33:33.879Z,50.47
2022-12-29T02:34:33.861Z,50.48
2022-12-29T02:35:33.922Z,50.50
2022-12-29T02:36:33.850Z,50.46
2022-12-29T02:37:33.836Z,50.44
2022-12-29T02:38:33.826Z,50.50
2022-12-29T02:39:33.864Z,50.49
2022-12-29T02:40:33.835Z,50.49
2022-12-29T02:41:33.843Z,50.53
2022-12-29T02:42:33.812Z,50.51
2022-12-29T02:43:33.848Z,50.51
2022-12-29T02:44:33.785Z,50.46
2022-12-29T02:45:33.845Z,50.47
2022-12-29T02:46:33.741Z,50.46
2022-12-29T02:47:33.769Z,50.47
2022-12-29T02:48:33.758Z,50.49
2022-12-29T02:49:33.753Z,50.52
2022-12-29T02:50:33.720Z,50.47
2022-12-29T02:51:33.732Z,50.44
2022-12-29T02:52:33.721Z,50.44
2022-12-29T02:53:33.709Z,50.48
2022-12-29T02:54:33.690Z,50.45
2022-12-29T02:55:33.715Z,50.45
2022-12-29T02:56:33.690Z,50.45
2022-12-29T02:57:33.692Z,50.49
2022-12-29T02:58:33.679Z,50.54
2022-12-29T02:59:33.663Z,50.52
2022-12-29T03:00:33.639Z,50.47
2022-12-29T03:01:33.750Z,50.48
2022-12-29T03:02:33.876Z,50.46
2022-12-29T03:03:33.746Z,50.47
2022-12-29T03:04:33.605Z,50.45
2022-12-29T03:05:33.635Z,50.46
2022-12-29T03:06:33.607Z,50.41
2022-12-29T03:07:33.586Z,50.44
2022-12-29T03:08:33.584Z,50.44
2022-12-29T03:09:33.610Z,50.49
2022-12-29T03:10:33.565Z,50.44
2022-12-29T03:11:33.654Z,50.41
2022-12-29T03:12:33.536Z,50.41
2022-12-29T03:13:33.579Z,50.37
2022-12-29T03:14:33.562Z,50.43
2022-12-29T03:15:33.550Z,50.37
2022-12-29T03:16:33.556Z,50.40
2022-12-29T03:17:33.536Z,50.43
2022-12-29T03:18:33.524Z,50.39
2022-12-29T03:19:33.526Z,50.39
2022-12-29T03:20:33.514Z,50.42
2022-12-29T03:21:33.513Z,50.42
2022-12-29T03:22:33.490Z,50.39
2022-12-29T03:23:33.501Z,50.41
2022-12-29T03:24:33.476Z,50.40
2022-12-29T03:25:33.494Z,50.43
2022-12-29T03:26:33.480Z,50.43
2022-12-29T03:27:33.495Z,50.45
2022-12-29T03:28:33.464Z,50.45
2022-12-29T03:29:33.463Z,50.45
2022-12-29T03:30:33.549Z,50.40
2022-12-29T03:31:33.502Z,50.41
2022-12-29T03:32:33.475Z,50.40
2022-12-29T03:33:33.451Z,50.43
2022-12-29T03:34:33.435Z,50.40
2022-12-29T03:35:33.478Z,50.41
2022-12-29T03:36:33.438Z,50.36
2022-12-29T03:37:33.458Z,50.34
2022-12-29T03:38:33.436Z,50.34
2022-12-29T03:39:33.451Z,50.34
2022-12-29T03:40:33.456Z,50.37
2022-12-29T03:41:33.436Z,50.34
2022-12-29T03:42:33.406Z,50.40
2022-12-29T03:43:33.432Z,50.38
2022-12-29T03:44:33.424Z,50.37
2022-12-29T03:45:33.447Z,50.37
2022-12-29T03:46:33.466Z,50.39
2022-12-29T03:47:33.436Z,50.40
2022-12-29T03:48:33.434Z,50.36
2022-12-29T03:49:33.434Z,50.41
2022-12-29T03:50:33.396Z,50.37
2022-12-29T03:51:33.433Z,50.40
2022-12-29T03:52:33.407Z,50.34
2022-12-29T03:53:33.407Z,50.38
2022-12-29T03:54:33.401Z,50.41
2022-12-29T03:55:33.446Z,50.39
2022-12-29T03:56:33.414Z,50.39
2022-12-29T03:57:33.427Z,50.36
2022-12-29T03:58:33.396Z,50.41
2022-12-29T03:59:33.441Z,50.41
2022-12-29T04:00:33.408Z,50.39
2022-12-29T04:01:33.519Z,50.35
2022-12-29T04:02:33.587Z,50.39
2022-12-29T04:03:33.468Z,50.39
2022-12-29T04:04:33.403Z,50.41
2022-12-29T04:05:33.408Z,50.38
2022-12-29T04:06:33.379Z,50.37
2022-12-29T04:07:33.389Z,50.40
2022-12-29T04:08:33.355Z,50.39
2022-12-29T04:09:33.392Z,50.41
2022-12-29T04:10:33.363Z,50.43
2022-12-29T04:11:34.495Z,50.37
2022-12-29T04:12:33.364Z,50.38
2022-12-29T04:13:33.368Z,50.40
2022-12-29T04:14:33.366Z,50.41
2022-12-29T04:15:33.409Z,50.35
2022-12-29T04:16:33.355Z,50.37
2022-12-29T04:17:33.402Z,50.40
2022-12-29T04:18:33.370Z,50.38
2022-12-29T04:19:33.398Z,50.41
2022-12-29T04:20:33.335Z,50.45
2022-12-29T04:21:33.376Z,50.42
2022-12-29T04:22:33.341Z,50.42
2022-12-29T04:23:33.350Z,50.39
2022-12-29T04:24:33.353Z,50.37
2022-12-29T04:25:33.387Z,50.35
2022-12-29T04:26:33.386Z,50.29
2022-12-29T04:27:33.372Z,50.29
2022-12-29T04:28:33.363Z,50.33
2022-12-29T04:29:33.366Z,50.34
2022-12-29T04:30:33.379Z,50.33
2022-12-29T04:31:33.399Z,50.37
2022-12-29T04:32:33.348Z,50.36
2022-12-29T04:33:33.370Z,50.36
2022-12-29T04:34:33.365Z,50.33
2022-12-29T04:35:33.380Z,50.33
2022-12-29T04:36:33.362Z,50.28
2022-12-29T04:37:33.391Z,50.31
2022-12-29T04:38:33.359Z,50.26
2022-12-29T04:39:33.416Z,50.31
2022-12-29T04:40:33.411Z,50.32
2022-12-29T04:41:33.391Z,50.33
2022-12-29T04:42:33.396Z,50.33
2022-12-29T04:43:33.425Z,50.33
2022-12-29T04:44:33.417Z,50.29
2022-12-29T04:45:33.419Z,50.31
2022-12-29T04:46:33.471Z,50.30
2022-12-29T04:47:33.450Z,50.36
2022-12-29T04:48:33.419Z,50.30
2022-12-29T04:49:33.420Z,50.30
2022-12-29T04:50:33.420Z,50.32
2022-12-29T04:51:33.437Z,50.32
2022-12-29T04:52:33.449Z,50.30
2022-12-29T04:53:33.456Z,50.29
2022-12-29T04:54:33.458Z,50.32
2022-12-29T04:55:33.473Z,50.32
2022-12-29T04:56:33.498Z,50.36
2022-12-29T04:57:33.483Z,50.36
2022-12-29T04:58:33.498Z,50.32
2022-12-29T04:59:33.519Z,50.35
2022-12-29T05:00:33.547Z,50.29
2022-12-29T05:01:33.721Z,50.29
2022-12-29T05:02:33.726Z,50.27
2022-12-29T05:03:33.586Z,50.26
2022-12-29T05:04:33.531Z,50.32
2022-12-29T05:05:33.551Z,50.30
2022-12-29T05:06:33.564Z,50.30
2022-12-29T05:07:33.579Z,50.28
2022-12-29T05:08:33.574Z,50.28
2022-12-29T05:09:33.605Z,50.29
2022-12-29T05:10:33.572Z,50.28
2022-12-29T05:11:33.571Z,50.28
2022-12-29T05:12:33.571Z,50.27
2022-12-29T05:13:33.622Z,50.32
2022-12-29T05:14:33.606Z,50.31
2022-12-29T05:15:33.587Z,50.33
2022-12-29T05:16:33.685Z,50.27
2022-12-29T05:17:33.634Z,50.31
2022-12-29T05:18:33.597Z,50.29
2022-12-29T05:19:33.628Z,50.29
2022-12-29T05:20:33.604Z,50.31
2022-12-29T05:21:33.612Z,50.32
2022-12-29T05:22:33.610Z,50.25
2022-12-29T05:23:33.625Z,50.24
2022-12-29T05:24:33.616Z,50.33
2022-12-29T05:25:33.629Z,50.31
2022-12-29T05:26:33.629Z,50.29
2022-12-29T05:27:33.619Z,50.35
2022-12-29T05:28:33.615Z,50.35
2022-12-29T05:29:33.650Z,50.33
2022-12-29T05:30:33.621Z,50.34
2022-12-29T05:31:33.684Z,50.31
2022-12-29T05:32:33.645Z,50.32
2022-12-29T05:33:33.644Z,50.32
2022-12-29T05:34:33.639Z,50.32
2022-12-29T05:35:33.639Z,50.32
2022-12-29T05:36:37.765Z,50.35
2022-12-29T05:37:33.646Z,50.37
2022-12-29T05:38:33.616Z,50.36
2022-12-29T05:39:33.655Z,50.29
2022-12-29T05:40:33.632Z,50.31
2022-12-29T05:41:33.609Z,50.31
2022-12-29T05:42:33.606Z,50.31
2022-12-29T05:43:33.636Z,50.27
2022-12-29T05:44:33.633Z,50.27
2022-12-29T05:45:33.629Z,50.31
2022-12-29T05:46:33.699Z,50.28
2022-12-29T05:47:33.640Z,50.31
2022-12-29T05:48:37.863Z,50.30
2022-12-29T05:49:33.614Z,50.35
2022-12-29T05:50:33.588Z,50.31
2022-12-29T05:51:33.619Z,50.31
2022-12-29T05:52:33.615Z,50.28
2022-12-29T05:53:33.639Z,50.29
2022-12-29T05:54:33.580Z,50.32
2022-12-29T05:55:33.698Z,50.37
2022-12-29T05:56:33.654Z,50.43
2022-12-29T05:57:33.627Z,50.39
2022-12-29T05:58:33.617Z,50.34
2022-12-29T05:59:33.640Z,50.24
2022-12-29T06:00:33.627Z,50.17
2022-12-29T06:01:33.715Z,50.13
2022-12-29T06:02:33.772Z,50.15
2022-12-29T06:03:33.762Z,50.21
2022-12-29T06:04:33.649Z,50.27
2022-12-29T06:05:33.651Z,50.20
2022-12-29T06:06:33.638Z,50.21
2022-12-29T06:07:33.655Z,50.31
2022-12-29T06:08:33.650Z,50.22
2022-12-29T06:09:33.655Z,50.14
2022-12-29T06:10:33.650Z,50.10
2022-12-29T06:11:33.655Z,50.08
2022-12-29T06:12:33.637Z,50.10
2022-12-29T06:13:33.663Z,50.07
2022-12-29T06:14:33.600Z,50.08
2022-12-29T06:15:33.621Z,50.08
2022-12-29T06:16:33.646Z,49.95
2022-12-29T06:17:33.602Z,49.91
2022-12-29T06:18:33.568Z,49.88
2022-12-29T06:19:33.580Z,49.84
2022-12-29T06:20:33.520Z,49.74
2022-12-29T06:21:33.570Z,49.72
2022-12-29T06:22:33.530Z,49.63
2022-12-29T06:23:33.527Z,49.54
2022-12-29T06:24:33.491Z,49.45
2022-12-29T06:25:33.524Z,49.39
2022-12-29T06:26:33.471Z,49.28
2022-12-29T06:27:33.453Z,49.19
2022-12-29T06:28:33.430Z,49.13
2022-12-29T06:29:33.463Z,49.10
2022-12-29T06:30:33.421Z,49.03
2022-12-29T06:31:33.416Z,48.97
2022-12-29T06:32:33.357Z,48.92
2022-12-29T06:33:33.403Z,48.91
2022-12-29T06:34:33.331Z,48.92
2022-12-29T06:35:33.343Z,48.88
2022-12-29T06:36:33.318Z,48.88
2022-12-29T06:37:33.347Z,48.89
2022-12-29T06:38:33.307Z,48.88
2022-12-29T06:39:33.316Z,48.87
2022-12-29T06:40:33.244Z,48.91
2022-12-29T06:41:33.318Z,48.91
2022-12-29T06:42:33.294Z,48.89
2022-12-29T06:43:33.253Z,48.92
2022-12-29T06:44:33.203Z,48.93
2022-12-29T06:45:33.253Z,48.91
2022-12-29T06:46:33.181Z,48.91
2022-12-29T06:47:33.214Z,48.89
2022-12-29T06:48:33.205Z,48.92
2022-12-29T06:49:33.153Z,48.89
2022-12-29T06:50:33.148Z,48.86
2022-12-29T06:51:33.175Z,48.83
2022-12-29T06:52:33.122Z,48.91
2022-12-29T06:53:33.167Z,48.90
2022-12-29T06:54:33.094Z,48.92
2022-12-29T06:55:33.172Z,48.97
2022-12-29T06:56:33.095Z,48.85
2022-12-29T06:57:33.073Z,48.95
2022-12-29T06:58:33.060Z,48.85
2022-12-29T06:59:33.070Z,48.77
2022-12-29T07:00:33.041Z,48.80
2022-12-29T07:01:33.138Z,48.95
2022-12-29T07:02:33.138Z,48.98
2022-12-29T07:03:33.119Z,49.03
2022-12-29T07:04:33.012Z,48.99
2022-12-29T07:05:33.004Z,49.14
2022-12-29T07:06:32.967Z,49.11
2022-12-29T07:07:32.992Z,49.00
2022-12-29T07:08:32.960Z,49.28
2022-12-29T07:09:32.983Z,49.32
2022-12-29T07:10:32.944Z,49.23
2022-12-29T07:11:32.951Z,49.29
2022-12-29T07:12:32.968Z,49.30
2022-12-29T07:13:32.933Z,49.26
2022-12-29T07:14:37.344Z,49.32
2022-12-29T07:15:33.902Z,49.22
2022-12-29T07:16:32.975Z,49.31
2022-12-29T07:17:32.904Z,49.25
2022-12-29T07:18:32.863Z,49.24
2022-12-29T07:19:32.858Z,49.23
2022-12-29T07:20:32.795Z,49.24
2022-12-29T07:21:32.867Z,49.20
2022-12-29T07:22:32.795Z,49.16
2022-12-29T07:23:32.820Z,49.17
2022-12-29T07:24:32.757Z,49.15
2022-12-29T07:25:32.792Z,49.16
2022-12-29T07:26:36.332Z,49.17
2022-12-29T07:27:32.761Z,49.16
2022-12-29T07:28:32.721Z,49.11
2022-12-29T07:29:32.747Z,49.13
2022-12-29T07:30:32.694Z,49.14
2022-12-29T07:31:32.786Z,49.13
2022-12-29T07:32:32.658Z,49.10
2022-12-29T07:33:32.686Z,49.08
2022-12-29T07:34:32.665Z,49.07
2022-12-29T07:35:32.664Z,49.01
2022-12-29T07:36:34.859Z,49.04
2022-12-29T07:37:32.641Z,48.99
2022-12-29T07:38:32.617Z,49.02
2022-12-29T07:39:32.620Z,48.95
2022-12-29T07:40:32.555Z,49.00
2022-12-29T07:41:32.587Z,48.93
2022-12-29T07:42:32.650Z,48.95
2022-12-29T07:43:32.596Z,48.97
2022-12-29T07:44:32.503Z,48.93
2022-12-29T07:45:32.531Z,48.80
2022-12-29T07:46:56.253Z,49.00
2022-12-29T07:47:33.538Z,48.86
2022-12-29T07:48:32.489Z,48.89
2022-12-29T07:49:32.489Z,48.90
2022-12-29T07:50:32.431Z,48.96
2022-12-29T07:51:32.493Z,49.02
2022-12-29T07:52:32.442Z,48.94
2022-12-29T07:53:32.410Z,49.06
2022-12-29T07:54:32.368Z,48.98
2022-12-29T07:55:32.412Z,49.06
2022-12-29T07:56:32.350Z,49.01
2022-12-29T07:57:32.523Z,49.09
2022-12-29T07:58:32.312Z,49.13
2022-12-29T07:59:32.370Z,49.17
2022-12-29T08:00:32.306Z,49.17
2022-12-29T08:01:32.405Z,49.07
2022-12-29T08:02:32.328Z,49.17
2022-12-29T08:03:32.331Z,49.14
2022-12-29T08:04:32.268Z,49.17
2022-12-29T08:05:32.274Z,49.15
2022-12-29T08:06:32.216Z,49.10
2022-12-29T08:07:32.253Z,49.15
2022-12-29T08:08:32.229Z,49.13
2022-12-29T08:09:32.238Z,49.12
2022-12-29T08:10:32.191Z,49.10
2022-12-29T08:11:32.212Z,49.07
2022-12-29T08:12:32.164Z,49.10
2022-12-29T08:13:32.191Z,49.09
2022-12-29T08:14:32.141Z,49.06
2022-12-29T08:15:32.697Z,49.03
2022-12-29T08:16:32.180Z,49.06
2022-12-29T08:17:32.131Z,49.03
2022-12-29T08:18:32.085Z,49.01
2022-12-29T08:19:32.106Z,49.02
2022-12-29T08:20:32.037Z,48.95
2022-12-29T08:21:32.093Z,48.91
2022-12-29T08:22:32.012Z,48.99
2022-12-29T08:23:32.050Z,48.96
2022-12-29T08:24:31.971Z,48.91
2022-12-29T08:25:32.010Z,48.96
2022-12-29T08:26:31.978Z,48.88
2022-12-29T08:27:31.962Z,48.85
2022-12-29T08:28:31.949Z,48.83
2022-12-29T08:29:32.005Z,48.72
2022-12-29T08:30:31.924Z,48.82
2022-12-29T08:31:32.016Z,48.86
2022-12-29T08:32:31.875Z,48.83
2022-12-29T08:33:31.896Z,48.84
2022-12-29T08:34:31.852Z,48.73
2022-12-29T08:35:31.897Z,48.79
2022-12-29T08:36:31.815Z,48.60
2022-12-29T08:37:31.860Z,48.78
2022-12-29T08:38:31.789Z,48.72
2022-12-29T08:39:31.805Z,48.68
2022-12-29T08:40:31.763Z,48.69
2022-12-29T08:41:31.783Z,48.63
2022-12-29T08:42:31.734Z,48.44
2022-12-29T08:43:31.745Z,48.49
2022-12-29T08:44:31.695Z,48.47
2022-12-29T08:45:31.751Z,48.52
2022-12-29T08:46:31.715Z,48.37
2022-12-29T08:47:31.698Z,48.44
2022-12-29T08:48:31.624Z,48.45
2022-12-29T08:49:31.650Z,48.53
2022-12-29T08:50:31.611Z,48.59
2022-12-29T08:51:31.652Z,48.53
2022-12-29T08:52:31.594Z,48.50
2022-12-29T08:53:31.616Z,48.55
2022-12-29T08:54:31.546Z,48.56
2022-12-29T08:55:31.581Z,48.62
2022-12-29T08:56:31.545Z,48.62
2022-12-29T08:57:31.558Z,48.60
2022-12-29T08:58:31.504Z,48.59
2022-12-29T08:59:31.550Z,48.60
2022-12-29T09:00:31.523Z,48.61
2022-12-29T09:01:31.728Z,48.61
2022-12-29T09:02:31.702Z,48.59
2022-12-29T09:04:04.269Z,48.70
2022-12-29T09:04:32.790Z,48.76
2022-12-29T09:05:31.452Z,48.71
2022-12-29T09:06:35.104Z,48.73
2022-12-29T09:07:32.481Z,48.83
2022-12-29T09:08:31.442Z,48.88
2022-12-29T09:09:31.463Z,48.88
2022-12-29T09:10:31.411Z,48.89
2022-12-29T09:11:31.451Z,48.92
2022-12-29T09:12:36.095Z,49.00
2022-12-29T09:13:32.423Z,48.99
2022-12-29T09:14:31.359Z,49.07
2022-12-29T09:15:31.378Z,49.14
2022-12-29T09:16:31.388Z,49.17
2022-12-29T09:17:31.354Z,49.20
2022-12-29T09:18:31.296Z,49.26
2022-12-29T09:19:31.353Z,49.21
2022-12-29T09:20:31.284Z,49.27
2022-12-29T09:21:31.315Z,49.37
2022-12-29T09:22:31.262Z,49.32
2022-12-29T09:23:31.282Z,49.10
2022-12-29T09:24:31.208Z,49.12
2022-12-29T09:25:31.261Z,49.22
2022-12-29T09:26:31.203Z,49.25
2022-12-29T09:27:31.212Z,49.30
2022-12-29T09:28:31.149Z,49.24
2022-12-29T09:29:31.169Z,49.33
2022-12-29T09:30:31.144Z,49.28
2022-12-29T09:31:31.176Z,49.24
2022-12-29T09:32:33.846Z,49.31
2022-12-29T09:33:31.120Z,49.38
2022-12-29T09:34:31.087Z,49.33
2022-12-29T09:35:31.094Z,49.34
2022-12-29T09:36:31.046Z,49.40
2022-12-29T09:37:31.063Z,49.48
2022-12-29T09:38:31.010Z,49.54
2022-12-29T09:39:31.013Z,49.50
2022-12-29T09:40:31.001Z,49.44
2022-12-29T09:41:31.006Z,49.55
2022-12-29T09:42:30.956Z,49.53
2022-12-29T09:43:30.978Z,49.51
2022-12-29T09:44:30.931Z,49.49
2022-12-29T09:45:30.944Z,49.53
2022-12-29T09:46:30.939Z,49.49
2022-12-29T09:47:30.914Z,49.44
2022-12-29T09:48:30.863Z,49.54
2022-12-29T09:49:30.894Z,49.55
2022-12-29T09:50:30.840Z,49.53
2022-12-29T09:51:30.833Z,49.52
2022-12-29T09:52:30.793Z,49.48
2022-12-29T09:53:30.824Z,49.47
2022-12-29T09:54:30.750Z,49.43
2022-12-29T09:55:30.785Z,49.37
2022-12-29T09:56:30.749Z,49.37
2022-12-29T09:57:30.742Z,49.40
2022-12-29T09:58:30.719Z,49.50
2022-12-29T09:59:30.744Z,49.51
2022-12-29T10:00:30.753Z,49.59
2022-12-29T10:01:30.860Z,49.69
2022-12-29T10:02:30.807Z,49.72
2022-12-29T10:03:30.735Z,49.84
2022-12-29T10:04:30.634Z,49.83
2022-12-29T10:05:30.662Z,49.84
2022-12-29T10:06:30.620Z,49.88
2022-12-29T10:07:31.152Z,49.96
2022-12-29T10:08:30.899Z,49.94
2022-12-29T10:09:30.615Z,49.96
2022-12-29T10:10:30.589Z,50.07
2022-12-29T10:11:30.612Z,50.04
2022-12-29T10:12:30.583Z,50.18
2022-12-29T10:13:30.599Z,50.18
2022-12-29T10:14:30.557Z,50.17
2022-12-29T10:15:30.604Z,50.19
2022-12-29T10:16:30.557Z,50.25
2022-12-29T10:17:30.563Z,50.20
2022-12-29T10:18:30.520Z,50.21
2022-12-29T10:19:33.334Z,50.19
2022-12-29T10:20:30.516Z,50.18
2022-12-29T10:21:30.519Z,50.20
2022-12-29T10:22:30.467Z,50.18
2022-12-29T10:23:30.514Z,50.21
2022-12-29T10:24:30.504Z,50.18
2022-12-29T10:25:32.975Z,50.18
2022-12-29T10:26:30.483Z,50.17
2022-12-29T10:27:30.457Z,50.19
2022-12-29T10:28:30.430Z,50.20
2022-12-29T10:29:30.454Z,50.15
2022-12-29T10:30:30.447Z,50.14
2022-12-29T10:31:30.489Z,50.16
2022-12-29T10:32:37.472Z,50.16
2022-12-29T10:33:30.428Z,50.20
2022-12-29T10:34:30.421Z,50.11
2022-12-29T10:35:30.405Z,50.13
2022-12-29T10:36:30.497Z,50.13
2022-12-29T10:37:34.056Z,50.09
2022-12-29T10:38:30.499Z,50.10
2022-12-29T10:39:30.370Z,50.08
2022-12-29T10:40:30.584Z,50.11
2022-12-29T10:41:30.388Z,50.12
2022-12-29T10:42:30.576Z,50.17
2022-12-29T10:43:30.332Z,50.15
2022-12-29T10:44:30.327Z,50.17
2022-12-29T10:45:30.281Z,50.15
2022-12-29T10:46:30.352Z,50.16
2022-12-29T10:47:30.269Z,50.14
2022-12-29T10:48:32.056Z,50.13
2022-12-29T10:49:30.292Z,50.13
2022-12-29T10:50:30.265Z,50.09
2022-12-29T10:51:30.310Z,50.12
2022-12-29T10:52:30.256Z,50.10
2022-12-29T10:53:30.392Z,50.09
2022-12-29T10:54:30.600Z,50.09
2022-12-29T10:55:30.360Z,50.02
2022-12-29T10:56:30.177Z,50.00
2022-12-29T10:57:30.145Z,49.97
2022-12-29T10:58:30.192Z,49.98
2022-12-29T10:59:30.140Z,49.97
2022-12-29T11:00:30.162Z,50.00
2022-12-29T11:01:30.415Z,50.03
2022-12-29T11:02:30.219Z,50.00
2022-12-29T11:03:30.212Z,49.98
2022-12-29T11:04:30.112Z,49.97
2022-12-29T11:05:30.166Z,49.94
2022-12-29T11:06:30.154Z,49.95
2022-12-29T11:07:30.077Z,49.89
2022-12-29T11:08:30.065Z,49.91
2022-12-29T11:09:41.923Z,49.88
2022-12-29T11:10:31.124Z,49.85
2022-12-29T11:11:30.019Z,49.84
2022-12-29T11:12:30.124Z,49.85
2022-12-29T11:13:36.508Z,49.84
2022-12-29T11:14:31.023Z,49.84
2022-12-29T11:15:29.989Z,49.88
2022-12-29T11:16:30.026Z,49.87
2022-12-29T11:17:29.987Z,49.91
2022-12-29T11:18:30.016Z,49.91
2022-12-29T11:19:29.993Z,49.92
2022-12-29T11:20:29.981Z,49.94
2022-12-29T11:21:30.102Z,49.90
2022-12-29T11:22:29.970Z,49.90
2022-12-29T11:23:29.985Z,49.98
2022-12-29T11:24:29.927Z,50.04
2022-12-29T11:25:29.901Z,50.03
2022-12-29T11:26:34.127Z,50.01
2022-12-29T11:27:30.893Z,50.00
2022-12-29T11:28:29.860Z,49.97
2022-12-29T11:29:29.878Z,49.92
2022-12-29T11:30:29.836Z,49.89
2022-12-29T11:31:30.065Z,49.88
2022-12-29T11:32:29.880Z,49.91
2022-12-29T11:33:29.857Z,49.87
2022-12-29T11:34:29.944Z,49.94
2022-12-29T11:35:29.836Z,49.91
2022-12-29T11:36:29.975Z,49.92
2022-12-29T11:37:29.814Z,49.93
2022-12-29T11:38:29.799Z,49.93
2022-12-29T11:39:29.836Z,49.96
2022-12-29T11:40:29.931Z,49.95
2022-12-29T11:41:29.798Z,50.00
2022-12-29T11:42:29.742Z,50.07
2022-12-29T11:43:29.786Z,50.06
2022-12-29T11:44:29.731Z,50.05
2022-12-29T11:45:29.753Z,50.05
2022-12-29T11:46:29.766Z,50.04
2022-12-29T11:47:29.731Z,50.06
2022-12-29T11:48:29.716Z,49.99
2022-12-29T11:49:29.722Z,50.04
2022-12-29T11:50:29.680Z,50.04
2022-12-29T11:51:29.871Z,50.09
2022-12-29T11:52:29.678Z,50.11
2022-12-29T11:53:29.695Z,50.09
2022-12-29T11:54:29.626Z,50.08
2022-12-29T11:55:29.787Z,50.07
2022-12-29T11:56:30.612Z,50.08
2022-12-29T11:57:29.638Z,50.06
2022-12-29T11:58:29.599Z,50.06
2022-12-29T11:59:29.599Z,50.07
2022-12-29T12:00:29.601Z,50.12
2022-12-29T12:01:29.695Z,50.15
2022-12-29T12:02:29.668Z,50.12
2022-12-29T12:03:29.656Z,50.08
2022-12-29T12:04:29.752Z,50.14
2022-12-29T12:05:29.563Z,50.10
2022-12-29T12:06:29.519Z,50.11
2022-12-29T12:07:29.531Z,50.11
2022-12-29T12:08:29.513Z,50.15
2022-12-29T12:09:29.511Z,50.11
2022-12-29T12:10:29.509Z,50.17
2022-12-29T12:11:29.511Z,50.13
2022-12-29T12:12:29.479Z,50.18
2022-12-29T12:13:29.501Z,50.17
2022-12-29T12:14:29.980Z,50.17
2022-12-29T12:15:29.455Z,50.13
2022-12-29T12:16:29.526Z,50.15
2022-12-29T12:17:29.577Z,50.17
2022-12-29T12:18:29.554Z,50.11
2022-12-29T12:19:29.438Z,50.14
2022-12-29T12:20:29.457Z,50.17
2022-12-29T12:21:29.527Z,50.15
2022-12-29T12:22:29.411Z,50.11
2022-12-29T12:23:29.537Z,50.15
2022-12-29T12:24:29.387Z,50.14
2022-12-29T12:25:29.480Z,50.18
2022-12-29T12:26:29.391Z,50.17
2022-12-29T12:27:29.412Z,50.11
2022-12-29T12:28:34.744Z,50.11
2022-12-29T12:29:30.366Z,50.12
2022-12-29T12:30:29.349Z,50.10
2022-12-29T12:31:29.423Z,50.10
2022-12-29T12:32:29.322Z,50.15
2022-12-29T12:33:29.281Z,50.10
2022-12-29T12:34:29.258Z,50.08
2022-12-29T12:35:29.340Z,50.09
2022-12-29T12:36:29.319Z,50.14
2022-12-29T12:37:29.390Z,50.10
2022-12-29T12:38:29.206Z,50.05
2022-12-29T12:39:29.348Z,50.09
2022-12-29T12:40:29.206Z,50.09
2022-12-29T12:41:29.205Z,50.12
2022-12-29T12:42:29.178Z,50.09
2022-12-29T12:43:30.354Z,50.15
2022-12-29T12:44:29.156Z,50.09
2022-12-29T12:45:29.120Z,50.11
2022-12-29T12:46:29.175Z,50.09
2022-12-29T12:47:29.123Z,50.10
2022-12-29T12:48:29.100Z,50.10
2022-12-29T12:49:29.104Z,50.12
2022-12-29T12:50:29.059Z,50.13
2022-12-29T12:51:29.081Z,50.16
2022-12-29T12:52:29.056Z,50.16